KTAZ

Taylorville Municipal Airport

Taylorville, Illinois, USA
METAR KTAZ 120015Z AUTO 18010KT 10SM CLR 03/M01 A3004 RMK AO2 T00291013
Observed Flight Rules
Dec-12 @ 00:15 UTC (27 minutes ago) Visual Flight Rules
Wind Visibility Clouds
180° at 10 knots 10 miles
  • Clear skies
Temperatures Readings
Current 3°C / 37°F
Dewpoint -1°C / 30°F
Humidity 75%
Altimeter 30.04" Hg
Pressure 1017 hPa
Elevation 190
METAR KTAZ 120015Z AUTO 18010KT 10SM CLR 03/M01 A3004 RMK AO2 T00291013
Observed Flight Rules
Dec-12 @ 00:15 UTC
(27 minutes ago)
VFR
Wind Visibility
180° at 10 knots 10 miles
Clouds
  • Clear skies
Temperature Dewpoint
3°C / 37°F -1°C / 30°F
Humidity Altimeter Pressure
75% 30.04" Hg 1017 hPa